sensor_id;sensor_type;location;lat;lon;timestamp;pressure;altitude;pressure_sealevel;temperature;humidity
14790;BME280;7486;51.010;10.366;2023-12-07T00:00:10;98429.53;;;0.11;83.83
14790;BME280;7486;51.010;10.366;2023-12-07T00:02:56;98421.97;;;0.08;82.66
14790;BME280;7486;51.010;10.366;2023-12-07T00:05:41;98431.16;;;0.03;83.15
14790;BME280;7486;51.010;10.366;2023-12-07T00:08:27;98431.56;;;0.08;83.33
14790;BME280;7486;51.010;10.366;2023-12-07T00:11:13;98437.72;;;-0.03;82.84
14790;BME280;7486;51.010;10.366;2023-12-07T00:13:58;98446.19;;;-0.10;84.04
14790;BME280;7486;51.010;10.366;2023-12-07T00:16:44;98456.72;;;-0.21;83.54
14790;BME280;7486;51.010;10.366;2023-12-07T00:19:29;98452.91;;;-0.17;84.20
14790;BME280;7486;51.010;10.366;2023-12-07T00:22:14;98463.53;;;-0.30;83.72
14790;BME280;7486;51.010;10.366;2023-12-07T00:25:00;98464.50;;;-0.61;84.85
14790;BME280;7486;51.010;10.366;2023-12-07T00:27:45;98467.94;;;-1.02;86.98
14790;BME280;7486;51.010;10.366;2023-12-07T00:30:31;98469.59;;;-0.80;87.25
14790;BME280;7486;51.010;10.366;2023-12-07T00:33:16;98464.28;;;-0.79;87.57
14790;BME280;7486;51.010;10.366;2023-12-07T00:36:01;98471.84;;;-0.97;87.46
14790;BME280;7486;51.010;10.366;2023-12-07T00:38:47;98465.75;;;-0.86;88.26
14790;BME280;7486;51.010;10.366;2023-12-07T00:41:33;98449.28;;;-0.66;87.28
14790;BME280;7486;51.010;10.366;2023-12-07T00:44:18;98470.38;;;-0.38;85.62
14790;BME280;7486;51.010;10.366;2023-12-07T00:47:04;98470.41;;;-0.29;85.45
14790;BME280;7486;51.010;10.366;2023-12-07T00:49:49;98469.66;;;-0.41;84.49
14790;BME280;7486;51.010;10.366;2023-12-07T00:52:35;98473.09;;;-0.40;84.86
14790;BME280;7486;51.010;10.366;2023-12-07T00:55:21;98468.94;;;-0.52;84.39
14790;BME280;7486;51.010;10.366;2023-12-07T00:58:06;98482.16;;;-0.34;84.64
14790;BME280;7486;51.010;10.366;2023-12-07T01:00:52;98478.84;;;-0.36;84.03
14790;BME280;7486;51.010;10.366;2023-12-07T01:03:37;98491.47;;;-0.32;84.46
14790;BME280;7486;51.010;10.366;2023-12-07T01:06:23;98489.25;;;-0.36;83.54
14790;BME280;7486;51.010;10.366;2023-12-07T01:09:08;98497.25;;;-0.28;83.92
14790;BME280;7486;51.010;10.366;2023-12-07T01:11:54;98497.00;;;-0.25;83.58
14790;BME280;7486;51.010;10.366;2023-12-07T01:14:39;98467.50;;;-0.66;83.35
14790;BME280;7486;51.010;10.366;2023-12-07T01:17:25;98509.53;;;-0.61;84.92
14790;BME280;7486;51.010;10.366;2023-12-07T01:20:11;98509.50;;;-0.91;86.05
14790;BME280;7486;51.010;10.366;2023-12-07T01:22:56;98468.78;;;-0.81;86.20
14790;BME280;7486;51.010;10.366;2023-12-07T01:25:42;98507.38;;;-0.35;85.11
14790;BME280;7486;51.010;10.366;2023-12-07T01:28:28;98506.91;;;-0.40;84.85
14790;BME280;7486;51.010;10.366;2023-12-07T01:31:13;98517.88;;;-0.36;84.79
14790;BME280;7486;51.010;10.366;2023-12-07T01:33:58;98517.69;;;-0.45;85.05
14790;BME280;7486;51.010;10.366;2023-12-07T01:36:44;98527.13;;;-0.53;84.85
14790;BME280;7486;51.010;10.366;2023-12-07T01:39:30;98523.31;;;-0.49;84.90
14790;BME280;7486;51.010;10.366;2023-12-07T01:42:15;98530.97;;;-0.48;85.19
14790;BME280;7486;51.010;10.366;2023-12-07T01:45:01;98528.69;;;-0.41;84.96
14790;BME280;7486;51.010;10.366;2023-12-07T01:47:47;98528.75;;;-0.31;84.51
14790;BME280;7486;51.010;10.366;2023-12-07T01:50:34;98534.44;;;-0.38;84.09
14790;BME280;7486;51.010;10.366;2023-12-07T01:53:21;98535.53;;;-0.40;84.66
14790;BME280;7486;51.010;10.366;2023-12-07T01:56:08;98540.09;;;-0.32;84.02
14790;BME280;7486;51.010;10.366;2023-12-07T01:58:54;98543.00;;;-0.26;84.05
14790;BME280;7486;51.010;10.366;2023-12-07T02:01:40;98541.63;;;-0.30;84.40
14790;BME280;7486;51.010;10.366;2023-12-07T02:04:26;98549.38;;;-0.40;84.58
14790;BME280;7486;51.010;10.366;2023-12-07T02:07:13;98542.50;;;-0.41;85.05
14790;BME280;7486;51.010;10.366;2023-12-07T02:09:58;98538.72;;;-0.36;85.20
14790;BME280;7486;51.010;10.366;2023-12-07T02:12:44;98497.00;;;-0.56;84.60
14790;BME280;7486;51.010;10.366;2023-12-07T02:15:30;98545.88;;;-0.29;84.55
14790;BME280;7486;51.010;10.366;2023-12-07T02:18:28;98551.31;;;-0.42;84.73
14790;BME280;7486;51.010;10.366;2023-12-07T02:21:25;98550.78;;;-0.35;84.78
14790;BME280;7486;51.010;10.366;2023-12-07T02:24:17;98548.03;;;-0.34;84.38
14790;BME280;7486;51.010;10.366;2023-12-07T02:27:06;98545.50;;;-0.24;84.27
14790;BME280;7486;51.010;10.366;2023-12-07T02:29:51;98545.81;;;-0.18;83.79
14790;BME280;7486;51.010;10.366;2023-12-07T02:32:38;98547.50;;;-0.07;83.75
14790;BME280;7486;51.010;10.366;2023-12-07T02:35:24;98550.44;;;-0.21;83.50
14790;BME280;7486;51.010;10.366;2023-12-07T02:38:10;98547.31;;;-0.15;83.27
14790;BME280;7486;51.010;10.366;2023-12-07T02:40:56;98549.16;;;-0.27;83.32
14790;BME280;7486;51.010;10.366;2023-12-07T02:43:42;98542.03;;;-0.34;84.35
14790;BME280;7486;51.010;10.366;2023-12-07T02:46:28;98553.38;;;-0.35;83.81
14790;BME280;7486;51.010;10.366;2023-12-07T02:49:13;98555.19;;;-0.26;83.88
14790;BME280;7486;51.010;10.366;2023-12-07T02:51:59;98562.66;;;-0.43;84.26
14790;BME280;7486;51.010;10.366;2023-12-07T02:54:44;98565.75;;;-0.28;84.48
14790;BME280;7486;51.010;10.366;2023-12-07T02:57:30;98526.63;;;-0.38;84.05
14790;BME280;7486;51.010;10.366;2023-12-07T03:00:16;98554.59;;;-0.09;84.11
14790;BME280;7486;51.010;10.366;2023-12-07T03:03:01;98554.06;;;-0.03;83.20
14790;BME280;7486;51.010;10.366;2023-12-07T03:05:47;98566.53;;;-0.07;83.67
14790;BME280;7486;51.010;10.366;2023-12-07T03:08:32;98567.34;;;-0.06;82.75
14790;BME280;7486;51.010;10.366;2023-12-07T03:11:18;98571.88;;;-0.08;83.06
14790;BME280;7486;51.010;10.366;2023-12-07T03:14:03;98540.00;;;-0.31;83.00
14790;BME280;7486;51.010;10.366;2023-12-07T03:16:49;98568.56;;;-0.10;83.38
14790;BME280;7486;51.010;10.366;2023-12-07T03:19:39;98570.94;;;-0.07;83.09
14790;BME280;7486;51.010;10.366;2023-12-07T03:22:24;98576.25;;;-0.09;82.69
14790;BME280;7486;51.010;10.366;2023-12-07T03:25:10;98571.63;;;-0.05;83.25
14790;BME280;7486;51.010;10.366;2023-12-07T03:27:56;98578.47;;;-0.04;82.87
14790;BME280;7486;51.010;10.366;2023-12-07T03:30:42;98583.50;;;-0.12;83.09
14790;BME280;7486;51.010;10.366;2023-12-07T03:33:27;98587.03;;;-0.13;83.47
14790;BME280;7486;51.010;10.366;2023-12-07T03:36:13;98584.75;;;-0.07;83.44
14790;BME280;7486;51.010;10.366;2023-12-07T03:38:58;98586.97;;;-0.02;83.10
14790;BME280;7486;51.010;10.366;2023-12-07T03:41:44;98585.31;;;-0.03;82.91
14790;BME280;7486;51.010;10.366;2023-12-07T03:44:30;98578.78;;;0.02;83.22
14790;BME280;7486;51.010;10.366;2023-12-07T03:47:15;98583.72;;;0.05;82.65
14790;BME280;7486;51.010;10.366;2023-12-07T03:50:00;98581.75;;;-0.02;82.31
14790;BME280;7486;51.010;10.366;2023-12-07T03:52:46;98584.66;;;0.04;82.61
14790;BME280;7486;51.010;10.366;2023-12-07T03:55:31;98587.84;;;0.08;81.86
14790;BME280;7486;51.010;10.366;2023-12-07T03:58:17;98585.50;;;0.05;82.08
14790;BME280;7486;51.010;10.366;2023-12-07T04:01:02;98609.88;;;0.04;82.17
14790;BME280;7486;51.010;10.366;2023-12-07T04:03:48;98607.28;;;0.04;82.10
14790;BME280;7486;51.010;10.366;2023-12-07T04:06:33;98615.53;;;0.09;82.21
14790;BME280;7486;51.010;10.366;2023-12-07T04:09:19;98606.78;;;0.10;81.77
14790;BME280;7486;51.010;10.366;2023-12-07T04:12:05;98608.13;;;0.14;82.17
14790;BME280;7486;51.010;10.366;2023-12-07T04:14:51;98605.13;;;0.09;81.60
14790;BME280;7486;51.010;10.366;2023-12-07T04:17:36;98606.59;;;0.02;81.05
14790;BME280;7486;51.010;10.366;2023-12-07T04:20:22;98614.63;;;-0.11;81.73
14790;BME280;7486;51.010;10.366;2023-12-07T04:23:07;98616.25;;;-0.10;81.65
14790;BME280;7486;51.010;10.366;2023-12-07T04:25:53;98601.47;;;-0.09;82.08
14790;BME280;7486;51.010;10.366;2023-12-07T04:28:38;98606.66;;;-0.09;81.79
14790;BME280;7486;51.010;10.366;2023-12-07T04:31:23;98611.22;;;-0.02;81.85
14790;BME280;7486;51.010;10.366;2023-12-07T04:34:09;98592.13;;;-0.12;81.88
14790;BME280;7486;51.010;10.366;2023-12-07T04:36:54;98618.03;;;-0.10;82.13
14790;BME280;7486;51.010;10.366;2023-12-07T04:39:40;98611.88;;;-0.09;81.69
14790;BME280;7486;51.010;10.366;2023-12-07T04:42:26;98604.69;;;-0.17;82.25
14790;BME280;7486;51.010;10.366;2023-12-07T04:45:11;98612.72;;;-0.09;82.35
14790;BME280;7486;51.010;10.366;2023-12-07T04:47:57;98618.44;;;-0.15;82.33
14790;BME280;7486;51.010;10.366;2023-12-07T04:50:43;98612.59;;;-0.28;82.19
14790;BME280;7486;51.010;10.366;2023-12-07T04:53:28;98627.72;;;-0.22;82.53
14790;BME280;7486;51.010;10.366;2023-12-07T04:56:14;98605.75;;;-0.50;82.62
14790;BME280;7486;51.010;10.366;2023-12-07T04:58:59;98594.50;;;-0.71;82.94
14790;BME280;7486;51.010;10.366;2023-12-07T05:01:44;98626.38;;;-0.37;82.90
14790;BME280;7486;51.010;10.366;2023-12-07T05:04:30;98622.81;;;-0.36;82.95
14790;BME280;7486;51.010;10.366;2023-12-07T05:07:15;98616.09;;;-0.38;83.18
14790;BME280;7486;51.010;10.366;2023-12-07T05:10:01;98628.53;;;-0.21;83.25
14790;BME280;7486;51.010;10.366;2023-12-07T05:12:46;98624.31;;;-0.13;82.94
14790;BME280;7486;51.010;10.366;2023-12-07T05:15:32;98620.25;;;-0.06;82.65
14790;BME280;7486;51.010;10.366;2023-12-07T05:18:17;98613.72;;;-0.00;82.33
14790;BME280;7486;51.010;10.366;2023-12-07T05:21:03;98577.53;;;-0.24;81.82
14790;BME280;7486;51.010;10.366;2023-12-07T05:23:49;98628.09;;;0.04;82.18
14790;BME280;7486;51.010;10.366;2023-12-07T05:26:35;98637.59;;;0.05;82.28
14790;BME280;7486;51.010;10.366;2023-12-07T05:29:20;98612.13;;;-0.12;81.38
14790;BME280;7486;51.010;10.366;2023-12-07T05:32:07;98598.69;;;-0.17;81.63
14790;BME280;7486;51.010;10.366;2023-12-07T05:34:52;98627.28;;;0.03;81.16
14790;BME280;7486;51.010;10.366;2023-12-07T05:37:38;98629.78;;;0.05;81.29
14790;BME280;7486;51.010;10.366;2023-12-07T05:40:23;98615.75;;;-0.04;81.36
14790;BME280;7486;51.010;10.366;2023-12-07T05:43:09;98629.09;;;0.03;81.98
14790;BME280;7486;51.010;10.366;2023-12-07T05:45:55;98624.81;;;0.02;81.07
14790;BME280;7486;51.010;10.366;2023-12-07T05:48:41;98626.84;;;-0.02;81.85
14790;BME280;7486;51.010;10.366;2023-12-07T05:51:27;98622.81;;;-0.15;81.51
14790;BME280;7486;51.010;10.366;2023-12-07T05:54:13;98613.78;;;-0.11;82.59
14790;BME280;7486;51.010;10.366;2023-12-07T05:56:58;98619.75;;;-0.20;82.35
14790;BME280;7486;51.010;10.366;2023-12-07T05:59:44;98617.72;;;-0.17;82.55
14790;BME280;7486;51.010;10.366;2023-12-07T06:02:29;98623.81;;;-0.07;82.32
14790;BME280;7486;51.010;10.366;2023-12-07T06:05:15;98621.78;;;-0.03;82.08
14790;BME280;7486;51.010;10.366;2023-12-07T06:08:00;98629.00;;;-0.07;81.89
14790;BME280;7486;51.010;10.366;2023-12-07T06:10:46;98623.00;;;-0.07;81.97
14790;BME280;7486;51.010;10.366;2023-12-07T06:13:31;98641.97;;;-0.16;82.15
14790;BME280;7486;51.010;10.366;2023-12-07T06:16:17;98632.72;;;-0.09;82.21
14790;BME280;7486;51.010;10.366;2023-12-07T06:19:03;98630.66;;;-0.06;81.77
14790;BME280;7486;51.010;10.366;2023-12-07T06:21:49;98634.78;;;-0.03;82.14
14790;BME280;7486;51.010;10.366;2023-12-07T06:24:35;98639.06;;;-0.02;81.81
14790;BME280;7486;51.010;10.366;2023-12-07T06:27:21;98644.97;;;-0.00;81.56
14790;BME280;7486;51.010;10.366;2023-12-07T06:30:07;98643.16;;;0.00;81.92
14790;BME280;7486;51.010;10.366;2023-12-07T06:32:52;98654.09;;;-0.06;82.06
14790;BME280;7486;51.010;10.366;2023-12-07T06:35:37;98652.06;;;-0.02;81.71
14790;BME280;7486;51.010;10.366;2023-12-07T06:38:23;98660.34;;;0.03;81.41
14790;BME280;7486;51.010;10.366;2023-12-07T06:41:08;98666.22;;;0.05;81.67
14790;BME280;7486;51.010;10.366;2023-12-07T06:43:54;98672.63;;;0.01;81.41
14790;BME280;7486;51.010;10.366;2023-12-07T06:46:41;98655.19;;;-0.08;82.10
14790;BME280;7486;51.010;10.366;2023-12-07T06:49:27;98681.81;;;-0.05;82.16
14790;BME280;7486;51.010;10.366;2023-12-07T06:52:31;98680.97;;;-0.05;81.77
14790;BME280;7486;51.010;10.366;2023-12-07T06:55:17;98675.75;;;-0.05;82.18
14790;BME280;7486;51.010;10.366;2023-12-07T06:58:02;98674.63;;;-0.12;81.38
14790;BME280;7486;51.010;10.366;2023-12-07T07:00:48;98675.81;;;-0.16;82.26
14790;BME280;7486;51.010;10.366;2023-12-07T07:03:34;98678.44;;;-0.16;82.36
14790;BME280;7486;51.010;10.366;2023-12-07T07:06:19;98662.81;;;-0.16;82.47
14790;BME280;7486;51.010;10.366;2023-12-07T07:09:05;98683.84;;;-0.08;82.96
14790;BME280;7486;51.010;10.366;2023-12-07T07:11:50;98687.53;;;-0.11;82.54
14790;BME280;7486;51.010;10.366;2023-12-07T07:14:35;98696.34;;;-0.02;82.15
14790;BME280;7486;51.010;10.366;2023-12-07T07:17:21;98694.31;;;0.01;81.98
14790;BME280;7486;51.010;10.366;2023-12-07T07:20:10;98702.94;;;0.02;82.14
14790;BME280;7486;51.010;10.366;2023-12-07T07:22:56;98703.63;;;0.04;81.87
14790;BME280;7486;51.010;10.366;2023-12-07T07:25:42;98693.06;;;-0.04;82.12
14790;BME280;7486;51.010;10.366;2023-12-07T07:28:27;98694.19;;;0.03;81.94
14790;BME280;7486;51.010;10.366;2023-12-07T07:31:12;98693.09;;;0.05;82.15
14790;BME280;7486;51.010;10.366;2023-12-07T07:33:58;98697.22;;;0.08;81.86
14790;BME280;7486;51.010;10.366;2023-12-07T07:36:57;98694.31;;;0.01;81.31
14790;BME280;7486;51.010;10.366;2023-12-07T07:39:43;98693.72;;;-0.02;81.11
14790;BME280;7486;51.010;10.366;2023-12-07T07:42:29;98696.09;;;0.01;81.68
14790;BME280;7486;51.010;10.366;2023-12-07T07:45:15;98704.09;;;0.09;82.41
14790;BME280;7486;51.010;10.366;2023-12-07T07:48:00;98707.38;;;0.11;81.19
14790;BME280;7486;51.010;10.366;2023-12-07T07:50:46;98705.56;;;0.02;81.37
14790;BME280;7486;51.010;10.366;2023-12-07T07:53:32;98698.75;;;-0.10;81.54
14790;BME280;7486;51.010;10.366;2023-12-07T07:56:19;98701.75;;;-0.15;81.75
14790;BME280;7486;51.010;10.366;2023-12-07T07:59:04;98696.22;;;-0.21;82.13
14790;BME280;7486;51.010;10.366;2023-12-07T08:01:50;98704.19;;;-0.13;82.64
14790;BME280;7486;51.010;10.366;2023-12-07T08:04:35;98708.78;;;-0.26;81.93
14790;BME280;7486;51.010;10.366;2023-12-07T08:07:22;98703.38;;;-0.14;82.86
14790;BME280;7486;51.010;10.366;2023-12-07T08:10:08;98672.53;;;-0.39;82.02
14790;BME280;7486;51.010;10.366;2023-12-07T08:12:53;98717.44;;;-0.05;82.22
14790;BME280;7486;51.010;10.366;2023-12-07T08:15:38;98694.06;;;-0.16;81.87
14790;BME280;7486;51.010;10.366;2023-12-07T08:18:24;98717.44;;;-0.05;82.13
14790;BME280;7486;51.010;10.366;2023-12-07T08:21:21;98709.31;;;-0.12;81.84
14790;BME280;7486;51.010;10.366;2023-12-07T08:24:12;98721.38;;;-0.11;82.47
14790;BME280;7486;51.010;10.366;2023-12-07T08:26:57;98718.81;;;-0.22;82.38
14790;BME280;7486;51.010;10.366;2023-12-07T08:29:43;98715.06;;;-0.29;82.89
14790;BME280;7486;51.010;10.366;2023-12-07T08:32:28;98723.19;;;-0.22;82.52
14790;BME280;7486;51.010;10.366;2023-12-07T08:35:14;98719.81;;;-0.13;82.33
14790;BME280;7486;51.010;10.366;2023-12-07T08:38:00;98724.41;;;-0.26;82.66
14790;BME280;7486;51.010;10.366;2023-12-07T08:40:45;98720.59;;;-0.22;82.78
14790;BME280;7486;51.010;10.366;2023-12-07T08:43:31;98721.84;;;-0.17;83.03
14790;BME280;7486;51.010;10.366;2023-12-07T08:46:16;98729.63;;;-0.06;82.78
14790;BME280;7486;51.010;10.366;2023-12-07T08:49:02;98727.84;;;-0.05;81.88
14790;BME280;7486;51.010;10.366;2023-12-07T08:51:48;98720.91;;;-0.16;81.64
14790;BME280;7486;51.010;10.366;2023-12-07T08:54:53;98704.66;;;-0.29;82.42
14790;BME280;7486;51.010;10.366;2023-12-07T08:57:39;98732.72;;;-0.12;81.87
14790;BME280;7486;51.010;10.366;2023-12-07T09:00:25;98735.72;;;-0.16;82.71
14790;BME280;7486;51.010;10.366;2023-12-07T09:03:10;98732.38;;;-0.07;81.79
14790;BME280;7486;51.010;10.366;2023-12-07T09:05:55;98728.34;;;-0.11;82.03
14790;BME280;7486;51.010;10.366;2023-12-07T09:08:41;98732.84;;;-0.13;82.56
14790;BME280;7486;51.010;10.366;2023-12-07T09:11:27;98734.13;;;-0.08;81.96
14790;BME280;7486;51.010;10.366;2023-12-07T09:14:13;98704.34;;;-0.35;82.32
14790;BME280;7486;51.010;10.366;2023-12-07T09:16:58;98736.44;;;-0.14;82.85
14790;BME280;7486;51.010;10.366;2023-12-07T09:19:44;98742.94;;;-0.20;81.66
14790;BME280;7486;51.010;10.366;2023-12-07T09:22:30;98733.81;;;-0.14;82.72
14790;BME280;7486;51.010;10.366;2023-12-07T09:25:22;98725.03;;;-0.13;82.31
14790;BME280;7486;51.010;10.366;2023-12-07T09:28:07;98706.06;;;-0.25;82.31
14790;BME280;7486;51.010;10.366;2023-12-07T09:30:53;98709.25;;;-0.21;81.95
14790;BME280;7486;51.010;10.366;2023-12-07T09:33:39;98728.63;;;0.06;81.81
14790;BME280;7486;51.010;10.366;2023-12-07T09:36:24;98735.34;;;0.09;81.60
14790;BME280;7486;51.010;10.366;2023-12-07T09:39:10;98725.94;;;-0.03;81.38
14790;BME280;7486;51.010;10.366;2023-12-07T09:41:55;98721.19;;;0.02;81.72
14790;BME280;7486;51.010;10.366;2023-12-07T09:44:40;98723.72;;;0.13;81.16
14790;BME280;7486;51.010;10.366;2023-12-07T09:47:26;98684.78;;;-0.09;81.07
14790;BME280;7486;51.010;10.366;2023-12-07T09:50:22;98731.97;;;0.18;81.37
14790;BME280;7486;51.010;10.366;2023-12-07T09:53:08;98734.84;;;0.15;80.87
14790;BME280;7486;51.010;10.366;2023-12-07T09:55:54;98737.63;;;0.23;81.21
14790;BME280;7486;51.010;10.366;2023-12-07T09:58:40;98734.00;;;0.15;81.06
14790;BME280;7486;51.010;10.366;2023-12-07T10:01:30;98726.38;;;0.23;81.02
14790;BME280;7486;51.010;10.366;2023-12-07T10:04:21;98722.31;;;0.30;81.32
14790;BME280;7486;51.010;10.366;2023-12-07T10:07:07;98709.81;;;0.24;81.56
14790;BME280;7486;51.010;10.366;2023-12-07T10:09:52;98724.69;;;0.42;80.75
14790;BME280;7486;51.010;10.366;2023-12-07T10:12:48;98725.41;;;0.44;80.76
14790;BME280;7486;51.010;10.366;2023-12-07T10:15:36;98720.78;;;0.48;80.52
14790;BME280;7486;51.010;10.366;2023-12-07T10:18:24;98727.22;;;0.53;80.52
14790;BME280;7486;51.010;10.366;2023-12-07T10:21:10;98689.44;;;0.38;80.43
14790;BME280;7486;51.010;10.366;2023-12-07T10:23:56;98713.25;;;0.54;80.77
14790;BME280;7486;51.010;10.366;2023-12-07T10:26:43;98688.00;;;0.25;80.34
14790;BME280;7486;51.010;10.366;2023-12-07T10:29:28;98712.53;;;0.52;81.11
14790;BME280;7486;51.010;10.366;2023-12-07T10:32:17;98674.59;;;0.29;80.93
14790;BME280;7486;51.010;10.366;2023-12-07T10:35:04;98707.28;;;0.43;80.37
14790;BME280;7486;51.010;10.366;2023-12-07T10:37:51;98708.19;;;0.32;81.11
14790;BME280;7486;51.010;10.366;2023-12-07T10:40:36;98705.16;;;0.27;80.79
14790;BME280;7486;51.010;10.366;2023-12-07T10:43:23;98700.47;;;0.00;81.35
14790;BME280;7486;51.010;10.366;2023-12-07T10:46:09;98718.19;;;0.27;82.02
14790;BME280;7486;51.010;10.366;2023-12-07T10:48:59;98710.94;;;0.31;80.63
14790;BME280;7486;51.010;10.366;2023-12-07T10:51:50;98703.44;;;0.37;80.74
14790;BME280;7486;51.010;10.366;2023-12-07T10:54:54;98706.41;;;0.33;80.39
14790;BME280;7486;51.010;10.366;2023-12-07T10:57:44;98706.94;;;0.27;80.86
14790;BME280;7486;51.010;10.366;2023-12-07T11:00:30;98710.28;;;0.38;81.63
14790;BME280;7486;51.010;10.366;2023-12-07T11:03:29;98691.28;;;0.47;81.85
14790;BME280;7486;51.010;10.366;2023-12-07T11:06:15;98697.69;;;0.43;81.23
14790;BME280;7486;51.010;10.366;2023-12-07T11:09:03;98669.25;;;0.61;81.43
14790;BME280;7486;51.010;10.366;2023-12-07T11:11:56;98689.59;;;0.77;80.88
14790;BME280;7486;51.010;10.366;2023-12-07T11:14:43;98680.25;;;0.74;81.06
14790;BME280;7486;51.010;10.366;2023-12-07T11:17:28;98688.03;;;0.95;80.76
14790;BME280;7486;51.010;10.366;2023-12-07T11:20:19;98683.38;;;1.08;80.32
14790;BME280;7486;51.010;10.366;2023-12-07T11:23:04;98630.00;;;0.72;79.96
14790;BME280;7486;51.010;10.366;2023-12-07T11:25:52;98637.47;;;0.86;79.05
14790;BME280;7486;51.010;10.366;2023-12-07T11:28:39;98651.69;;;1.22;79.16
14790;BME280;7486;51.010;10.366;2023-12-07T11:31:25;98646.03;;;1.17;78.19
14790;BME280;7486;51.010;10.366;2023-12-07T11:34:11;98618.03;;;1.19;78.07
14790;BME280;7486;51.010;10.366;2023-12-07T11:36:56;98646.31;;;1.62;77.30
14790;BME280;7486;51.010;10.366;2023-12-07T11:39:42;98647.84;;;1.45;76.04
14790;BME280;7486;51.010;10.366;2023-12-07T11:42:28;98645.47;;;1.61;75.21
14790;BME280;7486;51.010;10.366;2023-12-07T11:45:13;98645.63;;;1.70;74.82
14790;BME280;7486;51.010;10.366;2023-12-07T11:48:17;98640.69;;;1.67;74.12
14790;BME280;7486;51.010;10.366;2023-12-07T11:51:06;98643.28;;;1.67;73.35
14790;BME280;7486;51.010;10.366;2023-12-07T11:53:52;98639.16;;;1.74;73.02
14790;BME280;7486;51.010;10.366;2023-12-07T11:56:37;98644.25;;;1.56;72.23
14790;BME280;7486;51.010;10.366;2023-12-07T11:59:23;98640.56;;;1.30;72.91
14790;BME280;7486;51.010;10.366;2023-12-07T12:02:18;98599.50;;;1.32;72.30
14790;BME280;7486;51.010;10.366;2023-12-07T12:05:04;98638.63;;;1.60;71.39
14790;BME280;7486;51.010;10.366;2023-12-07T12:07:49;98631.06;;;1.38;71.06
14790;BME280;7486;51.010;10.366;2023-12-07T12:10:35;98631.75;;;1.21;72.13
14790;BME280;7486;51.010;10.366;2023-12-07T12:13:28;98605.13;;;1.08;72.64
14790;BME280;7486;51.010;10.366;2023-12-07T12:16:16;98603.47;;;1.17;73.45
14790;BME280;7486;51.010;10.366;2023-12-07T12:19:02;98644.00;;;1.49;74.19
14790;BME280;7486;51.010;10.366;2023-12-07T12:21:50;98628.47;;;1.29;73.81
14790;BME280;7486;51.010;10.366;2023-12-07T12:24:37;98619.69;;;1.39;73.38
14790;BME280;7486;51.010;10.366;2023-12-07T12:27:25;98624.63;;;1.42;71.65
14790;BME280;7486;51.010;10.366;2023-12-07T12:30:11;98625.88;;;1.57;71.51
14790;BME280;7486;51.010;10.366;2023-12-07T12:32:57;98608.66;;;1.55;71.63
14790;BME280;7486;51.010;10.366;2023-12-07T12:35:43;98586.44;;;1.32;70.60
14790;BME280;7486;51.010;10.366;2023-12-07T12:38:28;98611.59;;;1.33;70.68
14790;BME280;7486;51.010;10.366;2023-12-07T12:41:26;98611.44;;;1.15;72.33
14790;BME280;7486;51.010;10.366;2023-12-07T12:44:11;98602.66;;;1.16;72.25
14790;BME280;7486;51.010;10.366;2023-12-07T12:47:08;98561.47;;;0.91;71.83
14790;BME280;7486;51.010;10.366;2023-12-07T12:49:55;98602.50;;;1.18;71.30
14790;BME280;7486;51.010;10.366;2023-12-07T12:52:41;98596.06;;;1.02;71.72
14790;BME280;7486;51.010;10.366;2023-12-07T12:55:26;98607.34;;;1.13;71.53
14790;BME280;7486;51.010;10.366;2023-12-07T12:58:12;98593.31;;;1.04;71.13
14790;BME280;7486;51.010;10.366;2023-12-07T13:00:58;98594.13;;;1.04;71.43
14790;BME280;7486;51.010;10.366;2023-12-07T13:03:44;98579.59;;;0.92;71.33
14790;BME280;7486;51.010;10.366;2023-12-07T13:06:30;98604.31;;;1.27;71.42
14790;BME280;7486;51.010;10.366;2023-12-07T13:09:16;98599.50;;;1.32;71.11
14790;BME280;7486;51.010;10.366;2023-12-07T13:12:01;98584.50;;;1.24;70.79
14790;BME280;7486;51.010;10.366;2023-12-07T13:14:50;98595.91;;;1.52;70.72
14790;BME280;7486;51.010;10.366;2023-12-07T13:17:35;98594.06;;;1.72;70.94
14790;BME280;7486;51.010;10.366;2023-12-07T13:20:21;98585.50;;;1.89;70.91
14790;BME280;7486;51.010;10.366;2023-12-07T13:23:06;98575.38;;;1.76;68.54
14790;BME280;7486;51.010;10.366;2023-12-07T13:25:52;98537.78;;;1.59;69.02
14790;BME280;7486;51.010;10.366;2023-12-07T13:28:37;98571.16;;;1.56;68.64
14790;BME280;7486;51.010;10.366;2023-12-07T13:31:23;98546.28;;;1.61;69.04
14790;BME280;7486;51.010;10.366;2023-12-07T13:34:09;98558.59;;;1.79;67.42
14790;BME280;7486;51.010;10.366;2023-12-07T13:36:56;98546.78;;;1.75;67.08
14790;BME280;7486;51.010;10.366;2023-12-07T13:39:42;98556.41;;;1.84;66.64
14790;BME280;7486;51.010;10.366;2023-12-07T13:42:30;98553.75;;;1.93;65.64
14790;BME280;7486;51.010;10.366;2023-12-07T13:45:16;98560.47;;;1.96;65.42
14790;BME280;7486;51.010;10.366;2023-12-07T13:48:01;98550.31;;;1.93;65.01
14790;BME280;7486;51.010;10.366;2023-12-07T13:50:47;98539.84;;;1.93;65.34
14790;BME280;7486;51.010;10.366;2023-12-07T13:53:32;98545.06;;;1.93;65.44
14790;BME280;7486;51.010;10.366;2023-12-07T13:56:18;98547.03;;;1.91;65.00
14790;BME280;7486;51.010;10.366;2023-12-07T13:59:03;98548.81;;;1.90;65.17
14790;BME280;7486;51.010;10.366;2023-12-07T14:01:48;98545.94;;;1.84;64.74
14790;BME280;7486;51.010;10.366;2023-12-07T14:04:34;98547.31;;;1.88;64.92
14790;BME280;7486;51.010;10.366;2023-12-07T14:07:21;98514.53;;;1.66;64.85
14790;BME280;7486;51.010;10.366;2023-12-07T14:10:07;98534.13;;;1.80;64.49
14790;BME280;7486;51.010;10.366;2023-12-07T14:12:52;98541.94;;;1.89;65.09
14790;BME280;7486;51.010;10.366;2023-12-07T14:15:37;98542.09;;;1.88;65.05
14790;BME280;7486;51.010;10.366;2023-12-07T14:18:29;98545.66;;;1.87;65.78
14790;BME280;7486;51.010;10.366;2023-12-07T14:21:19;98538.78;;;1.86;66.19
14790;BME280;7486;51.010;10.366;2023-12-07T14:24:18;98476.13;;;1.39;67.56
14790;BME280;7486;51.010;10.366;2023-12-07T14:27:05;98510.84;;;1.59;67.77
14790;BME280;7486;51.010;10.366;2023-12-07T14:29:51;98536.50;;;1.73;67.72
14790;BME280;7486;51.010;10.366;2023-12-07T14:32:38;98546.41;;;1.70;67.69
14790;BME280;7486;51.010;10.366;2023-12-07T14:35:24;98542.72;;;1.62;67.58
14790;BME280;7486;51.010;10.366;2023-12-07T14:38:10;98536.13;;;1.58;67.66
14790;BME280;7486;51.010;10.366;2023-12-07T14:40:56;98520.47;;;1.49;68.07
14790;BME280;7486;51.010;10.366;2023-12-07T14:43:45;98533.25;;;1.52;68.49
14790;BME280;7486;51.010;10.366;2023-12-07T14:46:30;98541.38;;;1.49;68.53